Anjou, Canada
Current Conditions -  °F | °C
As of 6:00 AM on Wednesday 26 Nov 2014 (Local Time) from CYHU Reporting Station
Overcast Overcast  
Wind Chill: 27°   Ceiling: 22000
Heat Index: 32°   Visibility: 9mi
Dew Point: 19°   Wind: 5mph
Humidity: 60%   Direction: 280°W
Pressure: 30.23"   Gusts: NA
Location:  45.6°N, 73.53°W
Report Text: CYHU 261100Z AUTO 28004KT 9SM OVC220 00/M07 A3023 RMK PRESRR SLP239
Loading
Personal Weather Stations






























Interactive Weather Map New forecast layout! Learn more

10-Day Weather Forecast

Advertisements
Track Severe Weather on mobile